Hovedside
METAR-TAF:

METAR-TAF

Lufthavner :

Andøya lufthavn. Andenes

Andøya, Norge

breddegrad: 69-18N, lengdegrad: 016-09E, høyde over havet: 1 m

Gjeldene værobservasjon

Denne rapporten ble laget for 13 minutter siden, klokken 01:20 UTC
Vind 8 kt fra Øst-nordøst
Temperatur -1°C
Luftfuktighet 74%
Trykk 1019 hPa
Sikt 10 km eller mer

METAR: ENAN 110120Z AUTO 07008KT 9999 FEW051/// M01/M05 Q1019

Tid: 02:33 (01:33 UTC)

Varsel

Varsel gyldig fra 11. klokken 00 UTC til 11. klokken 24 UTC
Vind 8 kt fra Øst-nordøst
Sikt 10 km eller mer
Spredte skyer i en høyde av 2500 ft
Sannsynlighet 40% :
Midlertidig
fra 11. klokken 01 UTC til 11. klokken 24 UTC
Sikt: 3000 m
i en høyde av 1200 ft
lette snøbyger, regn
Blir
fra 11. klokken 12 UTC til 11. klokken 14 UTC
Vind 10 kt fra Vest-sørvest

TAF: ENAN 1100/1124 06008KT 9999 SCT025 PROB40 TEMPO 1101/1124 3000 -SHSNRA VV012 BECMG 1112/1114 25010KT

Værobservasjoner og værvarsel for over 4000 flyplasser (METAR- og TAF-rapporter).

Tilgjengelige stasjoner er representert av de røde og gule prikkene på kartet.

Hold musepekeren over prikken for å se navnet på stasjonen.

Klikk så for å se værobservasjoner og -varsler.

For å forandre kartet kan du klikke på den grønne knappen med svart kryss for å zoome inn, på den grønne knappen med strek for å zoome ut, eller på de grønne pilene for å se tilstøtende kart.


METAR-TAF: